22NK weather

Alstar North Heliport
Dunkirk, New York, United States

Public forecast

Using degrees Fahrenheit for public forecast. Weather courtesy of forecast.io.

Closest aviation weather report (METAR) to Alstar North Heliport

Closest report is Chautauqua County-Dunkirk Airport, 2.6 nm (4.8 km) ENE. Retrieved 2019/12/15 01:53 UTC (14 minutes ago):

KDKK 150153Z AUTO 27015G24KT 6SM -RA BR OVC011 03/01 A2951 RMK AO2 PK WND 27026/0101 CIG 008V014 SLP998 P0001 T00330011

Closest aviation forecast (TAF) to Alstar North Heliport

Forecast is more than 6 hours old.

Closest forecast is Chautauqua County-Jamestown Airport, 20.0 nm (37.1 km) S. Retrieved 2019/12/14 18:36 UTC (8 hours ago):

TAF KJHW 141735Z 1418/1518 32014KT 3/4SM -SN BR OVC002 FM142100 30014G21KT 1/2SM SN FG OVC004 FM150300 28017G25KT 1 1/2SM -SN OVC007 FM150700 27015G25KT 4SM -SHSN OVC012 FM151400 27016G27KT P6SM VCSH OVC015